»·PEaware :: N899M KLAS-KSAN

N899M :: KLAS-KSAN

FLIGHT INFORMATION

Flight Status: Arrived
Operator: Privately registered:
United States
More flights under this callsign
Pilot: Robert C. (30425)
Aircraft: Unknown
(EPIC)
More flights by this aircraft type
Origin: KLAS McCarran Intl
United States
Destination: KSAN San Diego Intl-Lindbergh
United States
More flights between these airports :: More routes between these airports
Route: LAS V538 GFS V514 MZB
File this flight plan on PilotEdge
Remarks:
Altitude:
(Current/Filed)
16,000ft
Speed:
(Current/Filed)
300kts
Departed: 04-Jan-21 09:22 PM
Arrived: 04-Jan-21 10:20 PM
Distance/Time
Traveled:
197nm/0:58
Distance/Time
To Go:
Arrived

Flight Plot

Page will automatically refresh every two minutes.


Map Options




Map Legend


Flown Route
Filed Route
Departure Airport
Arrival Airport
Navaid (VOR, NDB)
Fix

Horizontal Profiles

Position Reports

Time Latitude Longitude Heading Altitude Ground
Speed
04-Jan-21 21:00 36.082660 -115.170020 89 2164ft 0kts
04-Jan-21 21:01 36.082660 -115.170020 89 2164ft 0kts
04-Jan-21 21:02 36.082660 -115.170020 89 2164ft 0kts
04-Jan-21 21:03 36.082660 -115.170020 89 2164ft 0kts
04-Jan-21 21:04 36.082660 -115.170020 89 2164ft 0kts
04-Jan-21 21:05 36.082660 -115.170020 89 2164ft 0kts
04-Jan-21 21:06 36.082660 -115.170020 89 2164ft 0kts
04-Jan-21 21:07 36.082660 -115.170020 89 2164ft 0kts
04-Jan-21 21:07 36.082660 -115.170020 89 2164ft 0kts
04-Jan-21 21:09 36.082660 -115.170020 89 2164ft 0kts
04-Jan-21 21:10 36.082660 -115.170020 89 2164ft 0kts
04-Jan-21 21:10 36.082660 -115.170020 89 2164ft 0kts
04-Jan-21 21:12 36.082660 -115.170020 89 2164ft 0kts
04-Jan-21 21:12 36.082660 -115.170020 89 2164ft 0kts
04-Jan-21 21:13 36.082660 -115.170020 89 2164ft 0kts
04-Jan-21 21:14 36.082224 -115.169778 160 2164ft 5kts
04-Jan-21 21:15 36.083154 -115.168309 25 2159ft 18kts
04-Jan-21 21:16 36.089614 -115.164596 24 2132ft 29kts
04-Jan-21 21:17 36.097358 -115.160173 24 2097ft 28kts
04-Jan-21 21:18 36.099314 -115.157997 183 2087ft 4kts
04-Jan-21 21:19 36.099153 -115.157944 152 2087ft 0kts
04-Jan-21 21:20 36.099153 -115.157944 152 2087ft 0kts
04-Jan-21 21:21 36.086394 -115.163884 204 2370ft 144kts
04-Jan-21 21:22 36.051355 -115.180837 201 4521ft 138kts
04-Jan-21 21:23 35.999601 -115.205533 201 6075ft 237kts
04-Jan-21 21:24 35.934399 -115.236295 202 7612ft 260kts
04-Jan-21 21:25 35.865305 -115.266502 202 9288ft 264kts
04-Jan-21 21:26 35.795314 -115.294402 202 11171ft 267kts
04-Jan-21 21:27 35.723165 -115.321056 201 13057ft 274kts
04-Jan-21 21:28 35.648199 -115.329115 164 14932ft 294kts
04-Jan-21 21:29 35.568242 -115.303568 172 16029ft 316kts
04-Jan-21 21:30 35.479917 -115.277800 172 16009ft 326kts
04-Jan-21 21:31 35.395461 -115.253204 172 16005ft 304kts
04-Jan-21 21:32 35.313600 -115.229208 172 16007ft 303kts
04-Jan-21 21:33 35.231246 -115.205331 172 16007ft 304kts
04-Jan-21 21:34 35.148976 -115.181533 172 16006ft 304kts
04-Jan-21 21:35 35.071180 -115.203060 205 16001ft 287kts
04-Jan-21 21:36 34.996125 -115.236100 205 15999ft 290kts
04-Jan-21 21:37 34.919014 -115.270119 203 16000ft 299kts
04-Jan-21 21:38 34.839860 -115.304937 203 15998ft 305kts
04-Jan-21 21:39 34.759883 -115.340060 203 15998ft 307kts
04-Jan-21 21:40 34.679799 -115.375160 203 16008ft 307kts
04-Jan-21 21:41 34.599516 -115.410273 203 16046ft 306kts
04-Jan-21 21:42 34.519799 -115.445073 203 16017ft 309kts
04-Jan-21 21:43 34.439975 -115.479841 203 15989ft 308kts
04-Jan-21 21:44 34.359073 -115.515010 203 15989ft 308kts
04-Jan-21 21:45 34.289850 -115.570171 226 15989ft 300kts
04-Jan-21 21:46 34.228681 -115.638979 226 15989ft 300kts
04-Jan-21 21:47 34.167524 -115.707760 226 15992ft 301kts
04-Jan-21 21:48 34.105119 -115.775090 218 15998ft 303kts
04-Jan-21 21:49 34.035104 -115.832353 217 15974ft 304kts
04-Jan-21 21:50 33.964661 -115.889340 217 15938ft 305kts
04-Jan-21 21:51 33.894157 -115.946265 217 15908ft 305kts
04-Jan-21 21:52 33.823854 -116.002972 217 15907ft 304kts
04-Jan-21 21:53 33.753506 -116.059557 217 15907ft 304kts
04-Jan-21 21:54 33.683377 -116.115838 217 15907ft 304kts
04-Jan-21 21:55 33.613605 -116.172904 219 15907ft 303kts
04-Jan-21 21:56 33.545505 -116.232638 219 15907ft 303kts
04-Jan-21 21:57 33.477647 -116.292088 219 15907ft 303kts
04-Jan-21 21:58 33.409627 -116.351562 219 15907ft 303kts
04-Jan-21 21:59 33.341668 -116.410884 219 15690ft 294kts
04-Jan-21 22:00 33.279038 -116.465470 219 14360ft 267kts
04-Jan-21 22:01 33.220768 -116.516164 219 13048ft 252kts
04-Jan-21 22:02 33.165048 -116.564557 218 11741ft 245kts
04-Jan-21 22:03 33.102130 -116.589543 187 10456ft 245kts
04-Jan-21 22:04 33.036994 -116.596615 186 9958ft 218kts
04-Jan-21 22:05 32.978936 -116.602601 189 9987ft 201kts
04-Jan-21 22:06 32.927270 -116.616455 221 9795ft 191kts
04-Jan-21 22:07 32.885773 -116.654557 221 8402ft 178kts
04-Jan-21 22:08 32.850768 -116.695393 231 6594ft 176kts
04-Jan-21 22:09 32.819217 -116.738370 231 5857ft 181kts
04-Jan-21 22:10 32.786289 -116.787360 241 5361ft 195kts
04-Jan-21 22:11 32.759532 -116.841902 241 4958ft 169kts
04-Jan-21 22:12 32.737019 -116.887268 241 4776ft 157kts
04-Jan-21 22:13 32.714502 -116.932977 241 4180ft 161kts
04-Jan-21 22:14 32.691270 -116.980918 241 3283ft 170kts
04-Jan-21 22:15 32.695938 -117.035118 286 2260ft 173kts
04-Jan-21 22:16 32.708643 -117.087297 286 1558ft 143kts
04-Jan-21 22:17 32.718308 -117.126971 286 1247ft 118kts
04-Jan-21 22:18 32.726961 -117.163307 286 379ft 98kts
04-Jan-21 22:19 32.733080 -117.187907 255 20ft 21kts
04-Jan-21 22:20 32.732557 -117.189841 286 20ft 13kts
04-Jan-21 22:21 32.730784 -117.191931 348 20ft 4kts
04-Jan-21 22:22 32.730874 -117.191688 118 20ft 0kts
04-Jan-21 22:27 33.673567 -117.872552 0 59ft 0kts
04-Jan-21 22:28 33.673567 -117.872552 297 59ft 0kts
04-Jan-21 22:30 33.673567 -117.872552 297 59ft 0kts
04-Jan-21 22:31 33.673567 -117.872552 297 59ft 0kts
04-Jan-21 22:32 33.673567 -117.872552 297 59ft 0kts

Navigation Log

Ident Type
Flight plan parsing failed, navigation log unavailable